sensor_id;sensor_type;location;lat;lon;timestamp;P1;durP1;ratioP1;P2;durP2;ratioP2
4278;SDS011;2153;47.744;10.580;2022-11-23T00:01:23;11.80;;;2.10;;
4278;SDS011;2153;47.744;10.580;2022-11-23T00:03:52;10.67;;;1.80;;
4278;SDS011;2153;47.744;10.580;2022-11-23T00:06:21;13.23;;;1.57;;
4278;SDS011;2153;47.744;10.580;2022-11-23T00:08:49;15.57;;;1.67;;
4278;SDS011;2153;47.744;10.580;2022-11-23T00:11:17;12.00;;;1.80;;
4278;SDS011;2153;47.744;10.580;2022-11-23T00:13:44;10.83;;;1.10;;
4278;SDS011;2153;47.744;10.580;2022-11-23T00:16:13;9.60;;;1.20;;
4278;SDS011;2153;47.744;10.580;2022-11-23T00:18:41;10.70;;;1.30;;
4278;SDS011;2153;47.744;10.580;2022-11-23T00:21:09;11.37;;;1.43;;
4278;SDS011;2153;47.744;10.580;2022-11-23T00:23:37;11.57;;;1.30;;
4278;SDS011;2153;47.744;10.580;2022-11-23T00:26:04;16.33;;;1.33;;
4278;SDS011;2153;47.744;10.580;2022-11-23T00:28:31;13.13;;;1.40;;
4278;SDS011;2153;47.744;10.580;2022-11-23T00:30:59;10.37;;;0.90;;
4278;SDS011;2153;47.744;10.580;2022-11-23T00:33:27;13.10;;;1.50;;
4278;SDS011;2153;47.744;10.580;2022-11-23T00:36:00;11.47;;;1.40;;
4278;SDS011;2153;47.744;10.580;2022-11-23T00:38:27;14.00;;;1.10;;
4278;SDS011;2153;47.744;10.580;2022-11-23T00:40:58;11.37;;;1.20;;
4278;SDS011;2153;47.744;10.580;2022-11-23T00:43:26;11.70;;;1.23;;
4278;SDS011;2153;47.744;10.580;2022-11-23T00:46:03;12.67;;;1.20;;
4278;SDS011;2153;47.744;10.580;2022-11-23T00:48:32;12.60;;;1.30;;
4278;SDS011;2153;47.744;10.580;2022-11-23T00:50:59;13.30;;;1.30;;
4278;SDS011;2153;47.744;10.580;2022-11-23T00:53:26;18.10;;;1.37;;
4278;SDS011;2153;47.744;10.580;2022-11-23T00:55:54;15.73;;;1.43;;
4278;SDS011;2153;47.744;10.580;2022-11-23T00:58:21;11.80;;;1.10;;
4278;SDS011;2153;47.744;10.580;2022-11-23T01:00:48;11.27;;;1.40;;
4278;SDS011;2153;47.744;10.580;2022-11-23T01:03:15;14.47;;;1.60;;
4278;SDS011;2153;47.744;10.580;2022-11-23T01:05:44;12.27;;;1.40;;
4278;SDS011;2153;47.744;10.580;2022-11-23T01:08:10;11.30;;;1.20;;
4278;SDS011;2153;47.744;10.580;2022-11-23T01:10:37;14.03;;;0.90;;
4278;SDS011;2153;47.744;10.580;2022-11-23T01:13:04;10.53;;;1.20;;
4278;SDS011;2153;47.744;10.580;2022-11-23T01:15:31;11.93;;;2.10;;
4278;SDS011;2153;47.744;10.580;2022-11-23T01:17:57;11.60;;;1.10;;
4278;SDS011;2153;47.744;10.580;2022-11-23T01:20:24;11.57;;;1.40;;
4278;SDS011;2153;47.744;10.580;2022-11-23T01:22:52;10.73;;;1.00;;
4278;SDS011;2153;47.744;10.580;2022-11-23T01:25:19;14.80;;;1.47;;
4278;SDS011;2153;47.744;10.580;2022-11-23T01:27:46;10.83;;;1.50;;
4278;SDS011;2153;47.744;10.580;2022-11-23T01:30:13;10.93;;;1.23;;
4278;SDS011;2153;47.744;10.580;2022-11-23T01:32:40;10.50;;;1.30;;
4278;SDS011;2153;47.744;10.580;2022-11-23T01:35:07;11.43;;;1.00;;
4278;SDS011;2153;47.744;10.580;2022-11-23T01:37:34;11.07;;;1.23;;
4278;SDS011;2153;47.744;10.580;2022-11-23T01:40:03;11.90;;;1.20;;
4278;SDS011;2153;47.744;10.580;2022-11-23T01:42:38;9.97;;;1.10;;
4278;SDS011;2153;47.744;10.580;2022-11-23T01:48:07;12.57;;;1.27;;
4278;SDS011;2153;47.744;10.580;2022-11-23T01:50:38;14.30;;;1.23;;
4278;SDS011;2153;47.744;10.580;2022-11-23T01:53:07;13.03;;;1.40;;
4278;SDS011;2153;47.744;10.580;2022-11-23T01:55:35;10.47;;;1.07;;
4278;SDS011;2153;47.744;10.580;2022-11-23T01:58:03;11.40;;;1.47;;
4278;SDS011;2153;47.744;10.580;2022-11-23T02:00:33;13.00;;;2.20;;
4278;SDS011;2153;47.744;10.580;2022-11-23T02:03:00;11.07;;;1.13;;
4278;SDS011;2153;47.744;10.580;2022-11-23T02:05:31;17.30;;;1.40;;
4278;SDS011;2153;47.744;10.580;2022-11-23T02:08:02;11.70;;;1.30;;
4278;SDS011;2153;47.744;10.580;2022-11-23T02:10:30;10.80;;;1.00;;
4278;SDS011;2153;47.744;10.580;2022-11-23T02:13:01;12.40;;;1.37;;
4278;SDS011;2153;47.744;10.580;2022-11-23T02:15:29;14.47;;;1.50;;
4278;SDS011;2153;47.744;10.580;2022-11-23T02:17:57;10.57;;;1.37;;
4278;SDS011;2153;47.744;10.580;2022-11-23T02:20:25;11.37;;;1.30;;
4278;SDS011;2153;47.744;10.580;2022-11-23T02:22:56;13.90;;;1.90;;
4278;SDS011;2153;47.744;10.580;2022-11-23T02:25:34;11.00;;;1.83;;
4278;SDS011;2153;47.744;10.580;2022-11-23T02:28:07;12.03;;;1.40;;
4278;SDS011;2153;47.744;10.580;2022-11-23T02:30:36;13.10;;;1.00;;
4278;SDS011;2153;47.744;10.580;2022-11-23T02:33:05;10.70;;;1.20;;
4278;SDS011;2153;47.744;10.580;2022-11-23T02:35:32;12.50;;;1.80;;
4278;SDS011;2153;47.744;10.580;2022-11-23T02:37:59;10.50;;;1.23;;
4278;SDS011;2153;47.744;10.580;2022-11-23T02:40:31;10.47;;;1.13;;
4278;SDS011;2153;47.744;10.580;2022-11-23T02:42:59;12.50;;;1.10;;
4278;SDS011;2153;47.744;10.580;2022-11-23T02:45:30;14.63;;;1.43;;
4278;SDS011;2153;47.744;10.580;2022-11-23T02:48:01;11.43;;;1.10;;
4278;SDS011;2153;47.744;10.580;2022-11-23T02:50:28;13.03;;;1.20;;
4278;SDS011;2153;47.744;10.580;2022-11-23T02:52:55;9.70;;;1.20;;
4278;SDS011;2153;47.744;10.580;2022-11-23T02:55:22;10.80;;;1.17;;
4278;SDS011;2153;47.744;10.580;2022-11-23T02:57:49;11.13;;;1.00;;
4278;SDS011;2153;47.744;10.580;2022-11-23T03:00:16;11.97;;;1.50;;
4278;SDS011;2153;47.744;10.580;2022-11-23T03:02:44;12.70;;;1.23;;
4278;SDS011;2153;47.744;10.580;2022-11-23T03:05:11;10.63;;;1.30;;
4278;SDS011;2153;47.744;10.580;2022-11-23T03:07:38;10.40;;;1.13;;
4278;SDS011;2153;47.744;10.580;2022-11-23T03:10:05;12.07;;;0.90;;
4278;SDS011;2153;47.744;10.580;2022-11-23T03:12:34;12.67;;;1.20;;
4278;SDS011;2153;47.744;10.580;2022-11-23T03:15:00;11.30;;;1.20;;
4278;SDS011;2153;47.744;10.580;2022-11-23T03:17:27;11.20;;;1.10;;
4278;SDS011;2153;47.744;10.580;2022-11-23T03:19:55;13.60;;;1.43;;
4278;SDS011;2153;47.744;10.580;2022-11-23T03:22:22;11.97;;;1.33;;
4278;SDS011;2153;47.744;10.580;2022-11-23T03:24:49;11.13;;;1.00;;
4278;SDS011;2153;47.744;10.580;2022-11-23T03:27:16;10.57;;;1.37;;
4278;SDS011;2153;47.744;10.580;2022-11-23T03:29:43;13.37;;;1.50;;
4278;SDS011;2153;47.744;10.580;2022-11-23T03:32:10;12.17;;;1.53;;
4278;SDS011;2153;47.744;10.580;2022-11-23T03:34:37;11.37;;;1.40;;
4278;SDS011;2153;47.744;10.580;2022-11-23T03:37:05;10.80;;;1.43;;
4278;SDS011;2153;47.744;10.580;2022-11-23T03:39:32;10.17;;;1.20;;
4278;SDS011;2153;47.744;10.580;2022-11-23T03:41:58;11.63;;;1.43;;
4278;SDS011;2153;47.744;10.580;2022-11-23T03:44:25;15.53;;;1.60;;
4278;SDS011;2153;47.744;10.580;2022-11-23T03:46:52;12.43;;;1.70;;
4278;SDS011;2153;47.744;10.580;2022-11-23T03:49:19;13.10;;;1.40;;
4278;SDS011;2153;47.744;10.580;2022-11-23T03:51:46;10.87;;;1.37;;
4278;SDS011;2153;47.744;10.580;2022-11-23T03:54:14;9.77;;;1.27;;
4278;SDS011;2153;47.744;10.580;2022-11-23T03:56:41;10.83;;;1.70;;
4278;SDS011;2153;47.744;10.580;2022-11-23T03:59:08;12.93;;;1.90;;
4278;SDS011;2153;47.744;10.580;2022-11-23T04:01:35;15.57;;;2.83;;
4278;SDS011;2153;47.744;10.580;2022-11-23T04:04:01;10.30;;;1.90;;
4278;SDS011;2153;47.744;10.580;2022-11-23T04:06:28;12.53;;;2.07;;
4278;SDS011;2153;47.744;10.580;2022-11-23T04:08:55;11.80;;;1.87;;
4278;SDS011;2153;47.744;10.580;2022-11-23T04:11:23;15.40;;;1.43;;
4278;SDS011;2153;47.744;10.580;2022-11-23T04:13:50;9.93;;;1.20;;
4278;SDS011;2153;47.744;10.580;2022-11-23T04:16:17;13.20;;;1.30;;
4278;SDS011;2153;47.744;10.580;2022-11-23T04:18:44;11.33;;;1.50;;
4278;SDS011;2153;47.744;10.580;2022-11-23T04:21:10;9.30;;;1.00;;
4278;SDS011;2153;47.744;10.580;2022-11-23T04:23:37;10.80;;;1.40;;
4278;SDS011;2153;47.744;10.580;2022-11-23T04:26:04;11.03;;;1.27;;
4278;SDS011;2153;47.744;10.580;2022-11-23T04:28:32;10.10;;;1.30;;
4278;SDS011;2153;47.744;10.580;2022-11-23T04:30:59;11.60;;;1.40;;
4278;SDS011;2153;47.744;10.580;2022-11-23T04:33:26;9.70;;;1.40;;
4278;SDS011;2153;47.744;10.580;2022-11-23T04:35:52;10.80;;;1.40;;
4278;SDS011;2153;47.744;10.580;2022-11-23T04:38:19;10.70;;;1.80;;
4278;SDS011;2153;47.744;10.580;2022-11-23T04:40:46;11.10;;;1.47;;
4278;SDS011;2153;47.744;10.580;2022-11-23T04:43:13;10.83;;;1.80;;
4278;SDS011;2153;47.744;10.580;2022-11-23T04:45:42;9.80;;;1.40;;
4278;SDS011;2153;47.744;10.580;2022-11-23T04:48:09;9.50;;;0.90;;
4278;SDS011;2153;47.744;10.580;2022-11-23T04:50:36;10.20;;;1.57;;
4278;SDS011;2153;47.744;10.580;2022-11-23T04:53:03;15.43;;;1.63;;
4278;SDS011;2153;47.744;10.580;2022-11-23T04:55:30;10.33;;;1.47;;
4278;SDS011;2153;47.744;10.580;2022-11-23T04:57:57;11.57;;;1.80;;
4278;SDS011;2153;47.744;10.580;2022-11-23T05:00:24;12.57;;;1.30;;
4278;SDS011;2153;47.744;10.580;2022-11-23T05:02:53;10.13;;;1.10;;
4278;SDS011;2153;47.744;10.580;2022-11-23T05:05:20;9.37;;;1.10;;
4278;SDS011;2153;47.744;10.580;2022-11-23T05:07:46;11.20;;;1.63;;
4278;SDS011;2153;47.744;10.580;2022-11-23T05:10:13;11.73;;;1.40;;
4278;SDS011;2153;47.744;10.580;2022-11-23T05:12:40;10.10;;;1.77;;
4278;SDS011;2153;47.744;10.580;2022-11-23T05:15:08;12.87;;;3.20;;
4278;SDS011;2153;47.744;10.580;2022-11-23T05:17:37;15.20;;;3.30;;
4278;SDS011;2153;47.744;10.580;2022-11-23T05:20:06;12.23;;;2.23;;
4278;SDS011;2153;47.744;10.580;2022-11-23T05:22:34;9.80;;;1.50;;
4278;SDS011;2153;47.744;10.580;2022-11-23T05:25:00;13.70;;;2.00;;
4278;SDS011;2153;47.744;10.580;2022-11-23T05:27:27;10.83;;;2.07;;
4278;SDS011;2153;47.744;10.580;2022-11-23T05:29:54;10.67;;;1.67;;
4278;SDS011;2153;47.744;10.580;2022-11-23T05:32:21;11.63;;;1.70;;
4278;SDS011;2153;47.744;10.580;2022-11-23T05:34:48;10.10;;;1.57;;
4278;SDS011;2153;47.744;10.580;2022-11-23T05:37:16;10.50;;;1.70;;
4278;SDS011;2153;47.744;10.580;2022-11-23T05:39:43;12.33;;;1.80;;
4278;SDS011;2153;47.744;10.580;2022-11-23T05:42:10;12.40;;;1.50;;
4278;SDS011;2153;47.744;10.580;2022-11-23T05:44:36;12.83;;;1.80;;
4278;SDS011;2153;47.744;10.580;2022-11-23T05:47:03;12.13;;;1.53;;
4278;SDS011;2153;47.744;10.580;2022-11-23T05:49:30;12.20;;;1.40;;
4278;SDS011;2153;47.744;10.580;2022-11-23T05:51:57;12.80;;;1.80;;
4278;SDS011;2153;47.744;10.580;2022-11-23T05:54:25;11.00;;;1.50;;
4278;SDS011;2153;47.744;10.580;2022-11-23T05:56:52;12.10;;;1.70;;
4278;SDS011;2153;47.744;10.580;2022-11-23T05:59:19;13.90;;;2.10;;
4278;SDS011;2153;47.744;10.580;2022-11-23T06:01:45;12.23;;;1.87;;
4278;SDS011;2153;47.744;10.580;2022-11-23T06:04:12;12.27;;;1.67;;
4278;SDS011;2153;47.744;10.580;2022-11-23T06:06:40;10.27;;;1.57;;
4278;SDS011;2153;47.744;10.580;2022-11-23T06:09:07;9.90;;;1.37;;
4278;SDS011;2153;47.744;10.580;2022-11-23T06:11:35;11.00;;;1.70;;
4278;SDS011;2153;47.744;10.580;2022-11-23T06:14:02;13.50;;;3.00;;
4278;SDS011;2153;47.744;10.580;2022-11-23T06:16:29;13.50;;;2.33;;
4278;SDS011;2153;47.744;10.580;2022-11-23T06:18:56;11.13;;;2.33;;
4278;SDS011;2153;47.744;10.580;2022-11-23T06:21:22;11.83;;;2.57;;
4278;SDS011;2153;47.744;10.580;2022-11-23T06:23:49;11.43;;;2.63;;
4278;SDS011;2153;47.744;10.580;2022-11-23T06:26:16;13.03;;;2.40;;
4278;SDS011;2153;47.744;10.580;2022-11-23T06:28:44;12.03;;;2.00;;
4278;SDS011;2153;47.744;10.580;2022-11-23T06:31:11;11.60;;;1.70;;
4278;SDS011;2153;47.744;10.580;2022-11-23T06:33:38;12.67;;;1.93;;
4278;SDS011;2153;47.744;10.580;2022-11-23T06:36:05;23.40;;;4.10;;
4278;SDS011;2153;47.744;10.580;2022-11-23T06:38:34;12.43;;;2.17;;
4278;SDS011;2153;47.744;10.580;2022-11-23T06:41:01;15.17;;;2.50;;
4278;SDS011;2153;47.744;10.580;2022-11-23T06:43:28;20.50;;;2.57;;
4278;SDS011;2153;47.744;10.580;2022-11-23T06:45:56;11.00;;;1.97;;
4278;SDS011;2153;47.744;10.580;2022-11-23T06:48:23;13.97;;;2.30;;
4278;SDS011;2153;47.744;10.580;2022-11-23T06:50:50;15.03;;;4.30;;
4278;SDS011;2153;47.744;10.580;2022-11-23T06:53:17;20.60;;;5.73;;
4278;SDS011;2153;47.744;10.580;2022-11-23T06:55:43;16.57;;;3.90;;
4278;SDS011;2153;47.744;10.580;2022-11-23T06:58:10;16.90;;;2.80;;
4278;SDS011;2153;47.744;10.580;2022-11-23T07:00:37;12.47;;;2.00;;
4278;SDS011;2153;47.744;10.580;2022-11-23T07:03:05;14.63;;;2.40;;
4278;SDS011;2153;47.744;10.580;2022-11-23T07:05:37;14.30;;;2.00;;
4278;SDS011;2153;47.744;10.580;2022-11-23T07:08:04;14.90;;;2.63;;
4278;SDS011;2153;47.744;10.580;2022-11-23T07:10:30;13.53;;;2.20;;
4278;SDS011;2153;47.744;10.580;2022-11-23T07:13:01;10.87;;;2.10;;
4278;SDS011;2153;47.744;10.580;2022-11-23T07:15:29;12.07;;;1.97;;
4278;SDS011;2153;47.744;10.580;2022-11-23T07:17:56;12.43;;;2.07;;
4278;SDS011;2153;47.744;10.580;2022-11-23T07:20:24;11.20;;;1.93;;
4278;SDS011;2153;47.744;10.580;2022-11-23T07:22:57;12.47;;;1.90;;
4278;SDS011;2153;47.744;10.580;2022-11-23T07:25:24;20.80;;;1.73;;
4278;SDS011;2153;47.744;10.580;2022-11-23T07:27:53;13.03;;;1.97;;
4278;SDS011;2153;47.744;10.580;2022-11-23T07:30:21;11.17;;;1.93;;
4278;SDS011;2153;47.744;10.580;2022-11-23T07:32:48;12.70;;;2.67;;
4278;SDS011;2153;47.744;10.580;2022-11-23T07:35:15;18.50;;;2.30;;
4278;SDS011;2153;47.744;10.580;2022-11-23T07:37:43;16.93;;;1.73;;
4278;SDS011;2153;47.744;10.580;2022-11-23T07:40:10;11.27;;;1.23;;
4278;SDS011;2153;47.744;10.580;2022-11-23T07:42:37;11.00;;;1.00;;
4278;SDS011;2153;47.744;10.580;2022-11-23T07:45:04;10.17;;;1.00;;
4278;SDS011;2153;47.744;10.580;2022-11-23T07:47:32;13.73;;;1.10;;
4278;SDS011;2153;47.744;10.580;2022-11-23T07:49:59;11.50;;;1.23;;
4278;SDS011;2153;47.744;10.580;2022-11-23T07:52:25;11.80;;;1.40;;
4278;SDS011;2153;47.744;10.580;2022-11-23T07:54:54;11.80;;;1.43;;
4278;SDS011;2153;47.744;10.580;2022-11-23T07:57:21;12.63;;;1.10;;
4278;SDS011;2153;47.744;10.580;2022-11-23T07:59:47;10.50;;;1.37;;
4278;SDS011;2153;47.744;10.580;2022-11-23T08:02:14;16.03;;;1.13;;
4278;SDS011;2153;47.744;10.580;2022-11-23T08:04:41;10.87;;;1.43;;
4278;SDS011;2153;47.744;10.580;2022-11-23T08:07:08;10.90;;;1.13;;
4278;SDS011;2153;47.744;10.580;2022-11-23T08:09:35;11.67;;;1.77;;
4278;SDS011;2153;47.744;10.580;2022-11-23T08:12:03;11.00;;;1.40;;
4278;SDS011;2153;47.744;10.580;2022-11-23T08:14:30;12.37;;;1.77;;
4278;SDS011;2153;47.744;10.580;2022-11-23T08:16:57;14.87;;;1.50;;
4278;SDS011;2153;47.744;10.580;2022-11-23T08:19:24;11.80;;;2.20;;
4278;SDS011;2153;47.744;10.580;2022-11-23T08:21:50;14.23;;;1.80;;
4278;SDS011;2153;47.744;10.580;2022-11-23T08:24:17;14.07;;;2.20;;
4278;SDS011;2153;47.744;10.580;2022-11-23T08:26:44;12.07;;;1.70;;
4278;SDS011;2153;47.744;10.580;2022-11-23T08:29:12;12.73;;;2.00;;
4278;SDS011;2153;47.744;10.580;2022-11-23T08:31:39;15.87;;;2.00;;
4278;SDS011;2153;47.744;10.580;2022-11-23T08:34:06;13.73;;;2.40;;
4278;SDS011;2153;47.744;10.580;2022-11-23T08:36:33;12.33;;;1.83;;
4278;SDS011;2153;47.744;10.580;2022-11-23T08:39:00;13.17;;;2.20;;
4278;SDS011;2153;47.744;10.580;2022-11-23T08:41:26;13.30;;;2.10;;
4278;SDS011;2153;47.744;10.580;2022-11-23T08:43:53;12.13;;;1.50;;
4278;SDS011;2153;47.744;10.580;2022-11-23T08:46:21;13.00;;;2.20;;
4278;SDS011;2153;47.744;10.580;2022-11-23T08:48:49;14.10;;;2.47;;
4278;SDS011;2153;47.744;10.580;2022-11-23T08:51:15;12.47;;;1.90;;
4278;SDS011;2153;47.744;10.580;2022-11-23T08:53:46;13.20;;;1.97;;
4278;SDS011;2153;47.744;10.580;2022-11-23T08:56:13;14.10;;;1.73;;
4278;SDS011;2153;47.744;10.580;2022-11-23T08:58:40;12.00;;;1.30;;
4278;SDS011;2153;47.744;10.580;2022-11-23T09:01:07;12.20;;;1.80;;
4278;SDS011;2153;47.744;10.580;2022-11-23T09:03:36;12.53;;;1.43;;
4278;SDS011;2153;47.744;10.580;2022-11-23T09:06:03;12.83;;;1.90;;
4278;SDS011;2153;47.744;10.580;2022-11-23T09:08:30;15.23;;;2.03;;
4278;SDS011;2153;47.744;10.580;2022-11-23T09:10:58;12.00;;;1.50;;
4278;SDS011;2153;47.744;10.580;2022-11-23T09:13:25;12.50;;;1.40;;
4278;SDS011;2153;47.744;10.580;2022-11-23T09:15:55;12.40;;;1.20;;
4278;SDS011;2153;47.744;10.580;2022-11-23T09:18:22;12.60;;;1.57;;
4278;SDS011;2153;47.744;10.580;2022-11-23T09:20:50;12.70;;;1.33;;
4278;SDS011;2153;47.744;10.580;2022-11-23T09:23:17;15.20;;;1.30;;
4278;SDS011;2153;47.744;10.580;2022-11-23T09:25:44;13.20;;;1.47;;
4278;SDS011;2153;47.744;10.580;2022-11-23T09:28:14;13.80;;;1.20;;
4278;SDS011;2153;47.744;10.580;2022-11-23T09:30:43;14.40;;;1.60;;
4278;SDS011;2153;47.744;10.580;2022-11-23T09:33:10;12.53;;;1.30;;
4278;SDS011;2153;47.744;10.580;2022-11-23T09:35:37;12.67;;;1.30;;
4278;SDS011;2153;47.744;10.580;2022-11-23T09:38:05;13.53;;;1.40;;
4278;SDS011;2153;47.744;10.580;2022-11-23T09:40:34;12.77;;;1.30;;
4278;SDS011;2153;47.744;10.580;2022-11-23T09:43:16;15.10;;;1.77;;
4278;SDS011;2153;47.744;10.580;2022-11-23T09:45:56;11.60;;;1.10;;
4278;SDS011;2153;47.744;10.580;2022-11-23T09:48:37;11.80;;;1.10;;
4278;SDS011;2153;47.744;10.580;2022-11-23T09:51:15;12.47;;;0.90;;
4278;SDS011;2153;47.744;10.580;2022-11-23T09:53:45;16.53;;;1.10;;
4278;SDS011;2153;47.744;10.580;2022-11-23T09:56:15;13.33;;;1.03;;
4278;SDS011;2153;47.744;10.580;2022-11-23T09:58:45;12.70;;;1.23;;
4278;SDS011;2153;47.744;10.580;2022-11-23T10:01:14;12.87;;;1.00;;
4278;SDS011;2153;47.744;10.580;2022-11-23T10:03:42;11.60;;;0.97;;
4278;SDS011;2153;47.744;10.580;2022-11-23T10:06:15;12.07;;;0.80;;
4278;SDS011;2153;47.744;10.580;2022-11-23T10:08:47;22.20;;;1.30;;
4278;SDS011;2153;47.744;10.580;2022-11-23T10:11:28;12.30;;;1.10;;
4278;SDS011;2153;47.744;10.580;2022-11-23T10:14:07;11.93;;;0.90;;
4278;SDS011;2153;47.744;10.580;2022-11-23T10:16:43;14.13;;;1.10;;
4278;SDS011;2153;47.744;10.580;2022-11-23T10:19:20;12.93;;;0.90;;
4278;SDS011;2153;47.744;10.580;2022-11-23T10:22:01;13.13;;;1.10;;
4278;SDS011;2153;47.744;10.580;2022-11-23T10:24:36;13.20;;;1.40;;
4278;SDS011;2153;47.744;10.580;2022-11-23T10:27:09;12.90;;;1.00;;
4278;SDS011;2153;47.744;10.580;2022-11-23T10:29:39;13.30;;;1.50;;
4278;SDS011;2153;47.744;10.580;2022-11-23T10:32:12;12.37;;;0.97;;
4278;SDS011;2153;47.744;10.580;2022-11-23T10:34:48;11.10;;;0.93;;
4278;SDS011;2153;47.744;10.580;2022-11-23T10:37:25;14.53;;;1.20;;
4278;SDS011;2153;47.744;10.580;2022-11-23T10:39:53;11.30;;;0.97;;
4278;SDS011;2153;47.744;10.580;2022-11-23T10:42:22;10.70;;;0.90;;
4278;SDS011;2153;47.744;10.580;2022-11-23T10:44:53;11.60;;;0.90;;
4278;SDS011;2153;47.744;10.580;2022-11-23T10:47:35;10.80;;;0.90;;
4278;SDS011;2153;47.744;10.580;2022-11-23T10:50:18;10.87;;;0.80;;
4278;SDS011;2153;47.744;10.580;2022-11-23T10:52:51;14.23;;;1.10;;
4278;SDS011;2153;47.744;10.580;2022-11-23T10:55:23;11.50;;;1.10;;
4278;SDS011;2153;47.744;10.580;2022-11-23T10:57:52;11.33;;;0.90;;
4278;SDS011;2153;47.744;10.580;2022-11-23T11:00:21;12.40;;;0.90;;
4278;SDS011;2153;47.744;10.580;2022-11-23T11:02:49;13.40;;;1.30;;
4278;SDS011;2153;47.744;10.580;2022-11-23T11:05:31;14.30;;;1.10;;
4278;SDS011;2153;47.744;10.580;2022-11-23T11:08:00;13.77;;;0.77;;
4278;SDS011;2153;47.744;10.580;2022-11-23T11:10:37;12.27;;;0.90;;
4278;SDS011;2153;47.744;10.580;2022-11-23T11:15:55;10.50;;;0.73;;
4278;SDS011;2153;47.744;10.580;2022-11-23T11:18:24;11.17;;;0.70;;
4278;SDS011;2153;47.744;10.580;2022-11-23T11:20:58;14.10;;;1.50;;
4278;SDS011;2153;47.744;10.580;2022-11-23T11:23:27;12.63;;;0.97;;
4278;SDS011;2153;47.744;10.580;2022-11-23T11:26:07;11.80;;;0.80;;
4278;SDS011;2153;47.744;10.580;2022-11-23T11:28:46;11.70;;;1.10;;
4278;SDS011;2153;47.744;10.580;2022-11-23T11:31:29;11.13;;;1.00;;
4278;SDS011;2153;47.744;10.580;2022-11-23T11:34:05;12.30;;;0.90;;
4278;SDS011;2153;47.744;10.580;2022-11-23T11:36:43;12.30;;;0.90;;
4278;SDS011;2153;47.744;10.580;2022-11-23T11:39:14;11.20;;;1.00;;
4278;SDS011;2153;47.744;10.580;2022-11-23T11:41:49;11.20;;;0.70;;
4278;SDS011;2153;47.744;10.580;2022-11-23T11:44:20;12.07;;;1.10;;
4278;SDS011;2153;47.744;10.580;2022-11-23T11:46:51;13.50;;;0.80;;
4278;SDS011;2153;47.744;10.580;2022-11-23T11:49:24;10.80;;;0.70;;
4278;SDS011;2153;47.744;10.580;2022-11-23T11:51:55;14.10;;;1.10;;
4278;SDS011;2153;47.744;10.580;2022-11-23T11:54:30;12.80;;;1.07;;
4278;SDS011;2153;47.744;10.580;2022-11-23T11:57:09;13.07;;;1.10;;
4278;SDS011;2153;47.744;10.580;2022-11-23T11:59:42;12.43;;;1.53;;
4278;SDS011;2153;47.744;10.580;2022-11-23T12:02:14;11.00;;;0.73;;
4278;SDS011;2153;47.744;10.580;2022-11-23T12:04:47;14.00;;;1.07;;
4278;SDS011;2153;47.744;10.580;2022-11-23T12:07:21;11.90;;;1.10;;
4278;SDS011;2153;47.744;10.580;2022-11-23T12:09:54;12.10;;;0.93;;
4278;SDS011;2153;47.744;10.580;2022-11-23T12:12:28;12.37;;;0.90;;
4278;SDS011;2153;47.744;10.580;2022-11-23T12:14:56;13.30;;;1.00;;
4278;SDS011;2153;47.744;10.580;2022-11-23T12:17:32;13.77;;;1.07;;
4278;SDS011;2153;47.744;10.580;2022-11-23T12:20:10;12.13;;;0.80;;
4278;SDS011;2153;47.744;10.580;2022-11-23T12:22:48;11.83;;;1.07;;
4278;SDS011;2153;47.744;10.580;2022-11-23T12:25:27;12.03;;;0.90;;
4278;SDS011;2153;47.744;10.580;2022-11-23T12:28:05;12.80;;;1.17;;
4278;SDS011;2153;47.744;10.580;2022-11-23T12:30:46;11.73;;;1.30;;
4278;SDS011;2153;47.744;10.580;2022-11-23T12:36:27;11.90;;;1.70;;
4278;SDS011;2153;47.744;10.580;2022-11-23T12:39:08;12.37;;;1.47;;
4278;SDS011;2153;47.744;10.580;2022-11-23T12:41:45;11.20;;;0.70;;
4278;SDS011;2153;47.744;10.580;2022-11-23T12:44:30;12.13;;;0.93;;
4278;SDS011;2153;47.744;10.580;2022-11-23T12:47:10;12.30;;;0.80;;
4278;SDS011;2153;47.744;10.580;2022-11-23T12:49:49;11.73;;;0.97;;
4278;SDS011;2153;47.744;10.580;2022-11-23T12:52:28;12.30;;;1.17;;
4278;SDS011;2153;47.744;10.580;2022-11-23T12:55:08;12.30;;;0.83;;
4278;SDS011;2153;47.744;10.580;2022-11-23T12:57:45;12.00;;;0.97;;
4278;SDS011;2153;47.744;10.580;2022-11-23T13:00:18;11.10;;;0.90;;
4278;SDS011;2153;47.744;10.580;2022-11-23T13:02:54;17.30;;;1.30;;
4278;SDS011;2153;47.744;10.580;2022-11-23T13:06:06;14.07;;;0.90;;
4278;SDS011;2153;47.744;10.580;2022-11-23T13:09:04;11.87;;;0.90;;
4278;SDS011;2153;47.744;10.580;2022-11-23T13:11:55;10.83;;;0.73;;
4278;SDS011;2153;47.744;10.580;2022-11-23T13:14:34;11.00;;;0.80;;
4278;SDS011;2153;47.744;10.580;2022-11-23T13:17:22;10.80;;;0.80;;
4278;SDS011;2153;47.744;10.580;2022-11-23T13:20:01;10.80;;;0.70;;
4278;SDS011;2153;47.744;10.580;2022-11-23T13:22:40;12.70;;;0.87;;
4278;SDS011;2153;47.744;10.580;2022-11-23T13:25:17;10.60;;;0.80;;
4278;SDS011;2153;47.744;10.580;2022-11-23T13:30:30;25.33;;;1.20;;
4278;SDS011;2153;47.744;10.580;2022-11-23T13:33:02;10.60;;;1.00;;
4278;SDS011;2153;47.744;10.580;2022-11-23T13:35:54;10.60;;;0.90;;
4278;SDS011;2153;47.744;10.580;2022-11-23T13:38:27;10.50;;;0.67;;
4278;SDS011;2153;47.744;10.580;2022-11-23T13:41:02;12.37;;;1.30;;
4278;SDS011;2153;47.744;10.580;2022-11-23T13:43:30;13.47;;;1.17;;
4278;SDS011;2153;47.744;10.580;2022-11-23T13:48:48;11.90;;;0.87;;
4278;SDS011;2153;47.744;10.580;2022-11-23T13:51:22;10.37;;;0.73;;
4278;SDS011;2153;47.744;10.580;2022-11-23T13:53:53;11.00;;;0.90;;
4278;SDS011;2153;47.744;10.580;2022-11-23T13:56:27;12.00;;;0.90;;
4278;SDS011;2153;47.744;10.580;2022-11-23T13:58:57;11.60;;;1.10;;
4278;SDS011;2153;47.744;10.580;2022-11-23T14:01:58;16.80;;;0.73;;
4278;SDS011;2153;47.744;10.580;2022-11-23T14:04:28;10.30;;;0.73;;
4278;SDS011;2153;47.744;10.580;2022-11-23T14:06:56;11.47;;;1.10;;
4278;SDS011;2153;47.744;10.580;2022-11-23T14:09:28;10.90;;;0.80;;
4278;SDS011;2153;47.744;10.580;2022-11-23T14:12:01;12.17;;;0.97;;
4278;SDS011;2153;47.744;10.580;2022-11-23T14:14:38;11.23;;;1.03;;
4278;SDS011;2153;47.744;10.580;2022-11-23T14:17:34;11.43;;;0.87;;
4278;SDS011;2153;47.744;10.580;2022-11-23T14:20:42;10.30;;;0.80;;
4278;SDS011;2153;47.744;10.580;2022-11-23T14:26:27;10.80;;;0.90;;
4278;SDS011;2153;47.744;10.580;2022-11-23T14:32:01;11.27;;;1.10;;
4278;SDS011;2153;47.744;10.580;2022-11-23T14:34:52;12.00;;;1.43;;
4278;SDS011;2153;47.744;10.580;2022-11-23T14:37:27;12.30;;;1.00;;
4278;SDS011;2153;47.744;10.580;2022-11-23T14:40:05;11.37;;;1.23;;
4278;SDS011;2153;47.744;10.580;2022-11-23T14:42:40;13.93;;;1.10;;
4278;SDS011;2153;47.744;10.580;2022-11-23T14:45:10;10.40;;;1.03;;
4278;SDS011;2153;47.744;10.580;2022-11-23T14:47:39;11.10;;;1.10;;
4278;SDS011;2153;47.744;10.580;2022-11-23T14:50:15;11.17;;;1.00;;
4278;SDS011;2153;47.744;10.580;2022-11-23T14:52:48;11.20;;;0.90;;
4278;SDS011;2153;47.744;10.580;2022-11-23T14:55:17;10.20;;;0.80;;
4278;SDS011;2153;47.744;10.580;2022-11-23T14:57:47;11.30;;;1.03;;
4278;SDS011;2153;47.744;10.580;2022-11-23T15:00:26;11.10;;;1.20;;
4278;SDS011;2153;47.744;10.580;2022-11-23T15:02:57;11.17;;;1.07;;
4278;SDS011;2153;47.744;10.580;2022-11-23T15:05:28;10.37;;;0.90;;
4278;SDS011;2153;47.744;10.580;2022-11-23T15:07:59;11.17;;;0.87;;
4278;SDS011;2153;47.744;10.580;2022-11-23T15:10:32;10.47;;;1.10;;
4278;SDS011;2153;47.744;10.580;2022-11-23T15:13:15;13.63;;;1.10;;
4278;SDS011;2153;47.744;10.580;2022-11-23T15:15:47;11.90;;;1.17;;
4278;SDS011;2153;47.744;10.580;2022-11-23T15:18:27;11.70;;;1.30;;
4278;SDS011;2153;47.744;10.580;2022-11-23T15:20:56;11.43;;;1.70;;
4278;SDS011;2153;47.744;10.580;2022-11-23T15:23:28;11.23;;;1.80;;
4278;SDS011;2153;47.744;10.580;2022-11-23T15:26:00;23.50;;;1.70;;
4278;SDS011;2153;47.744;10.580;2022-11-23T15:28:31;12.60;;;1.43;;